Direction — WDD4634 — position and weather

sailwx.info

Track history (hours):
 
Tides and Currents Weather Stations Pressure Air Temp Water Temp Dewpoint Dewpoint Depression Visibility Wind Speed Wind Dir Waves Ship Positions

Direction

Owner: Broadbill Fishing Inc, Westport, MA. More information available from US FCC via Universal Licensing System and Coast Guard Vessel Documentation Center.

Last reported at 2014-Nov-13 07:33 UTC. Time now 2014-Nov-22 14:09 UTC.
Position N 41°06' W 068°05'.
Warning: this ship's position is 9 days out of date.

Length 25 m.

Type: Fishing. MMSI: 367147350.

Date/timePositionNaut miles runAvg speedWind from/ knotsBaromVisibWave heightAir tempDewpointWater temp
2014-Nov-13 07:33N 41°06' W 068°05'129 8.0
2014-Nov-12 15:27N 41°35' W 070°53'3 3.0
2014-Nov-12 14:32N 41°38' W 070°55'0 0.0
2014-Nov-12 13:32N 41°38' W 070°55'0 0.3
2014-Nov-12 12:33N 41°38' W 070°54'  
2014-Nov-05 12:05N 40°54' W 067°13'4 8.3
2014-Nov-05 11:33N 40°56' W 067°19'8 7.9
2014-Nov-05 10:33N 40°58' W 067°29'7 7.4
2014-Nov-05 09:34N 40°60' W 067°38'7 7.2
2014-Nov-05 08:34N 41°02' W 067°48'10 7.6
2014-Nov-05 07:13N 41°04' W 068°01'35 9.3
2014-Nov-05 03:25N 41°14' W 068°46'8 9.5
2014-Nov-05 02:33N 41°16' W 068°56'19 8.7
2014-Nov-05 00:25N 41°21' W 069°20'7 8.5
2014-Nov-04 23:33N 41°23' W 069°30'18 9.1
2014-Nov-04 21:32N 41°24' W 069°54'9 9.3
2014-Nov-04 20:32N 41°27' W 070°06'19 8.5
2014-Nov-04 18:18N 41°29' W 070°31'13 6.7
2014-Nov-04 16:26N 41°33' W 070°47'  
Track history (hours):
 
Tides and Currents Weather Stations Pressure Air Temp Water Temp Dewpoint Dewpoint Depression Visibility Wind Speed Wind Dir Waves Ship Positions

Direction

Owner: Broadbill Fishing Inc, Westport, MA. More information available from US FCC via Universal Licensing System and Coast Guard Vessel Documentation Center.

Last reported at 2014-Nov-13 07:33 UTC. Time now 2014-Nov-22 14:09 UTC.
Position N 41°06' W 068°05'.
Warning: this ship's position is 9 days out of date.

Length 25 m.

Type: Fishing. MMSI: 367147350.

Date/timePositionNaut miles runAvg speedWind from/ knotsBaromVisibWave heightAir tempDewpointWater temp
2014-Nov-13 07:33N 41°06' W 068°05'129 8.0
2014-Nov-12 15:27N 41°35' W 070°53'3 3.0
2014-Nov-12 14:32N 41°38' W 070°55'0 0.0
2014-Nov-12 13:32N 41°38' W 070°55'0 0.3
2014-Nov-12 12:33N 41°38' W 070°54'  
2014-Nov-05 12:05N 40°54' W 067°13'4 8.3
2014-Nov-05 11:33N 40°56' W 067°19'8 7.9
2014-Nov-05 10:33N 40°58' W 067°29'7 7.4
2014-Nov-05 09:34N 40°60' W 067°38'7 7.2
2014-Nov-05 08:34N 41°02' W 067°48'10 7.6
2014-Nov-05 07:13N 41°04' W 068°01'35 9.3
2014-Nov-05 03:25N 41°14' W 068°46'8 9.5
2014-Nov-05 02:33N 41°16' W 068°56'19 8.7
2014-Nov-05 00:25N 41°21' W 069°20'7 8.5
2014-Nov-04 23:33N 41°23' W 069°30'18 9.1
2014-Nov-04 21:32N 41°24' W 069°54'9 9.3
2014-Nov-04 20:32N 41°27' W 070°06'19 8.5
2014-Nov-04 18:18N 41°29' W 070°31'13 6.7
2014-Nov-04 16:26N 41°33' W 070°47'  

Dump ship's entire track history